Time;durP1;ratioP1;P1;durP2;ratioP2;P2;SDS_P1;SDS_P2;PMS_P1;PMS_P2;Temp;Humidity;BMP_temperature;BMP_pressure;BME280_temperature;BME280_humidity;BME280_pressure;Samples;Min_cycle;Max_cycle;Signal;HPM_P1;HPM_P2
2023/10/29 00:05:50;;;;;;;16.30;12.90;;;;;;;7.83;100.00;98510.03;430153;1275;141050;-63
2023/10/29 00:15:56;;;;;;;14.60;10.80;;;;;;;7.66;100.00;98494.14;430405;1270;139346;-64
2023/10/29 00:26:04;;;;;;;11.00;9.50;;;;;;;7.59;100.00;98494.98;431711;1274;141684;-63
2023/10/29 00:36:10;;;;;;;11.10;10.00;;;;;;;7.68;100.00;98510.58;430871;1270;139163;-63
2023/10/29 00:46:17;;;;;;;16.10;13.50;;;;;;;7.71;100.00;98515.95;430504;1270;140703;-66
2023/10/29 00:56:23;;;;;;;10.70;9.00;;;;;;;7.64;100.00;98514.13;430744;1273;142656;-63
2023/10/29 01:06:29;;;;;;;14.10;9.60;;;;;;;7.71;100.00;98516.14;430352;1273;138246;-63
2023/10/29 01:16:35;;;;;;;11.50;9.00;;;;;;;7.78;100.00;98526.56;430600;1270;139698;-63
2023/10/29 01:26:41;;;;;;;18.10;11.10;;;;;;;7.83;100.00;98527.29;430446;1270;139493;-63
2023/10/29 01:36:47;;;;;;;9.50;7.40;;;;;;;7.82;100.00;98533.86;430547;1271;141182;-64
2023/10/29 01:46:53;;;;;;;10.60;8.70;;;;;;;7.77;100.00;98531.73;430270;1270;139942;-63
2023/10/29 01:57:00;;;;;;;8.80;7.90;;;;;;;7.73;100.00;98529.23;430475;1273;139215;-63
2023/10/29 02:07:07;;;;;;;9.90;7.40;;;;;;;7.71;100.00;98528.45;430463;1271;139698;-63
2023/10/29 02:17:13;;;;;;;8.80;7.40;;;;;;;7.64;100.00;98527.75;430464;1270;139176;-63
2023/10/29 02:27:19;;;;;;;7.70;6.50;;;;;;;7.49;100.00;98526.30;430402;1270;140379;-62
2023/10/29 02:37:25;;;;;;;13.10;7.40;;;;;;;7.39;100.00;98535.66;430423;1272;139152;-63
2023/10/29 02:47:31;;;;;;;8.70;6.20;;;;;;;7.39;100.00;98536.91;430187;1273;139142;-62
2023/10/29 02:57:37;;;;;;;8.70;5.80;;;;;;;7.44;100.00;98540.23;431440;1270;140150;-63
2023/10/29 03:07:43;;;;;;;9.10;7.20;;;;;;;7.49;100.00;98534.02;430536;1270;139785;-63
2023/10/29 03:17:49;;;;;;;7.90;6.40;;;;;;;7.53;100.00;98537.56;430964;1270;139557;-63
2023/10/29 03:27:57;;;;;;;6.80;5.90;;;;;;;7.48;100.00;98544.52;430213;1276;140322;-64
2023/10/29 03:38:03;;;;;;;8.00;6.30;;;;;;;7.45;100.00;98535.44;430351;1270;139200;-62
2023/10/29 03:48:09;;;;;;;9.00;5.60;;;;;;;7.39;100.00;98527.53;430553;1270;139107;-63
2023/10/29 03:58:15;;;;;;;7.60;6.30;;;;;;;7.30;100.00;98535.43;431674;1270;141255;-62
2023/10/29 04:08:20;;;;;;;10.40;6.80;;;;;;;7.29;100.00;98536.02;430201;1271;139901;-62
2023/10/29 04:18:31;;;;;;;9.70;6.40;;;;;;;7.10;100.00;98544.39;430466;1274;139360;-63
2023/10/29 04:28:37;;;;;;;7.00;5.80;;;;;;;6.95;100.00;98549.39;430993;1276;139518;-63
2023/10/29 04:38:43;;;;;;;9.60;7.50;;;;;;;6.94;100.00;98549.92;430199;1276;139567;-62
2023/10/29 04:48:49;;;;;;;9.70;7.10;;;;;;;7.06;100.00;98554.44;430254;1270;140380;-62
2023/10/29 04:58:55;;;;;;;6.80;5.80;;;;;;;7.12;100.00;98548.10;430237;1273;139186;-63
2023/10/29 05:09:01;;;;;;;8.70;5.50;;;;;;;7.16;100.00;98540.02;429974;1271;140071;-64
2023/10/29 05:19:09;;;;;;;9.10;6.10;;;;;;;7.10;100.00;98546.47;430247;1276;139657;-61
2023/10/29 05:29:16;;;;;;;10.90;6.80;;;;;;;6.99;100.00;98558.34;430536;1271;139195;-62
2023/10/29 05:39:22;;;;;;;11.30;6.90;;;;;;;6.90;100.00;98565.91;430317;1275;139749;-62
2023/10/29 05:49:28;;;;;;;10.40;6.90;;;;;;;6.85;100.00;98585.19;430402;1271;140592;-64
2023/10/29 05:59:34;;;;;;;11.20;8.00;;;;;;;6.89;100.00;98596.76;430558;1276;141181;-63
2023/10/29 06:09:40;;;;;;;9.50;7.40;;;;;;;7.00;100.00;98592.73;430463;1271;139986;-64
2023/10/29 06:19:46;;;;;;;9.20;7.10;;;;;;;7.19;100.00;98588.90;430360;1273;139269;-64
2023/10/29 06:29:53;;;;;;;9.30;7.40;;;;;;;7.75;100.00;98587.44;432127;1273;139578;-64
2023/10/29 06:39:59;;;;;;;11.20;5.40;;;;;;;9.23;100.00;98586.98;431324;1273;139530;-62
2023/10/29 06:50:07;;;;;;;7.50;4.70;;;;;;;12.19;100.00;98578.36;430131;1273;140031;-64
2023/10/29 07:00:15;;;;;;;6.30;5.70;;;;;;;13.92;100.00;98582.86;430701;1273;139499;-63
2023/10/29 07:10:19;;;;;;;;;;;;;;;14.57;100.00;98586.05;430843;1276;140366;-65
2023/10/29 07:20:25;;;;;;;5.80;4.00;;;;;;;15.42;100.00;98582.71;430718;1276;127933;-64
2023/10/29 07:30:32;;;;;;;5.50;3.90;;;;;;;15.37;100.00;98581.29;431112;1276;139557;-65
2023/10/29 07:40:38;;;;;;;7.10;5.50;;;;;;;14.91;100.00;98584.42;430425;1274;140369;-63
2023/10/29 07:50:51;;;;;;;6.30;5.20;;;;;;;14.67;100.00;98581.37;430778;1275;139875;-63
2023/10/29 08:00:57;;;;;;;10.30;5.30;;;;;;;14.25;100.00;98575.34;430583;1276;139493;-63
2023/10/29 08:11:03;;;;;;;7.60;6.20;;;;;;;13.80;100.00;98576.41;429878;1275;139701;-62
2023/10/29 08:21:09;;;;;;;7.50;4.40;;;;;;;13.46;100.00;98562.70;430375;1276;139478;-62
2023/10/29 08:31:16;;;;;;;8.60;5.50;;;;;;;13.20;100.00;98563.91;429835;1271;139490;-62
2023/10/29 08:41:22;;;;;;;10.60;5.30;;;;;;;13.86;100.00;98590.39;430410;1276;139577;-63
2023/10/29 08:51:28;;;;;;;5.50;3.90;;;;;;;17.05;100.00;98587.78;429793;1271;140808;-63
2023/10/29 09:01:35;;;;;;;4.50;4.10;;;;;;;20.26;100.00;98589.57;430771;1270;141508;-63
2023/10/29 09:11:43;;;;;;;3.90;2.50;;;;;;;23.23;99.58;98572.58;430462;1275;139044;-63
2023/10/29 09:21:51;;;;;;;3.10;2.80;;;;;;;23.89;94.18;98567.09;430054;1275;139183;-63
2023/10/29 09:31:56;;;;;;;4.50;2.00;;;;;;;21.67;89.50;98564.78;430316;1270;141120;-62
2023/10/29 09:42:08;;;;;;;5.90;3.10;;;;;;;19.49;89.10;98570.91;430041;1270;139962;-64
2023/10/29 09:52:17;;;;;;;4.00;2.70;;;;;;;18.22;90.10;98562.88;430140;1275;139332;-63
2023/10/29 10:02:23;;;;;;;21.80;8.90;;;;;;;17.12;90.28;98550.08;430050;1276;139404;-63
2023/10/29 10:12:29;;;;;;;6.80;4.40;;;;;;;16.80;92.13;98543.27;430992;1276;139706;-65
2023/10/29 10:22:37;;;;;;;6.10;4.30;;;;;;;16.55;92.53;98533.89;430012;1276;138789;-66
2023/10/29 10:32:43;;;;;;;5.60;2.10;;;;;;;16.15;92.51;98524.20;430537;1276;142111;-65
2023/10/29 10:42:55;;;;;;;2.70;1.50;;;;;;;15.67;92.48;98515.49;430737;1271;141892;-65
2023/10/29 10:53:02;;;;;;;4.50;2.20;;;;;;;15.41;93.17;98510.77;430255;1273;140167;-65
2023/10/29 11:03:10;;;;;;;3.10;1.70;;;;;;;15.29;93.64;98501.20;430986;1271;140133;-64
2023/10/29 11:13:36;;;;;;;3.90;2.30;;;;;;;15.26;94.03;98502.50;430214;1271;141106;-65
2023/10/29 11:23:42;;;;;;;6.30;3.30;;;;;;;15.28;94.16;98489.30;430441;1276;139675;-65
2023/10/29 11:33:49;;;;;;;4.90;2.20;;;;;;;15.36;94.07;98484.80;429950;1271;139542;-65
2023/10/29 11:44:22;;;;;;;3.80;2.20;;;;;;;15.41;93.70;98460.31;430196;1270;139943;-66
2023/10/29 11:54:28;;;;;;;3.90;2.50;;;;;;;15.47;93.53;98453.52;430278;1270;139576;-63
2023/10/29 12:04:34;;;;;;;3.80;1.70;;;;;;;15.45;93.26;98441.38;430158;1270;140034;-63
2023/10/29 12:14:43;;;;;;;1.70;1.10;;;;;;;15.53;92.89;98434.96;430367;1274;139802;-63
2023/10/29 12:24:51;;;;;;;2.90;1.70;;;;;;;15.65;92.62;98441.44;430985;1275;139488;-63
2023/10/29 12:34:59;;;;;;;7.10;1.50;;;;;;;15.96;92.29;98438.94;430744;1275;139641;-66
2023/10/29 12:45:08;;;;;;;3.60;2.30;;;;;;;16.36;91.51;98430.05;432119;1270;140136;-66
2023/10/29 12:55:15;;;;;;;1.90;1.50;;;;;;;16.37;90.50;98423.70;431063;1274;139565;-66
2023/10/29 13:05:21;;;;;;;4.50;1.60;;;;;;;16.29;90.23;98417.89;430352;1273;139353;-67
2023/10/29 13:15:27;;;;;;;4.10;2.30;;;;;;;16.28;90.28;98400.91;430504;1270;139335;-68
2023/10/29 13:25:32;;;;;;;3.90;1.60;;;;;;;16.32;90.29;98399.55;430039;1273;139220;-66
2023/10/29 13:35:41;;;;;;;3.70;1.60;;;;;;;16.42;89.94;98401.52;429771;1273;139339;-67
2023/10/29 13:45:59;;;;;;;2.30;1.60;;;;;;;16.48;89.85;98395.21;430082;1271;139743;-68
2023/10/29 13:56:10;;;;;;;12.20;2.10;;;;;;;16.45;89.17;98384.95;430044;1274;139271;-71
2023/10/29 14:06:16;;;;;;;3.40;1.90;;;;;;;16.07;89.32;98389.97;430735;1271;139588;-71
2023/10/29 14:16:33;;;;;;;4.40;2.70;;;;;;;15.75;89.84;98371.24;430908;1271;140104;-70
2023/10/29 14:26:39;;;;;;;3.70;2.70;;;;;;;15.59;90.34;98365.84;430236;1274;139227;-72
2023/10/29 14:36:45;;;;;;;5.80;3.80;;;;;;;15.35;90.19;98367.42;430551;1270;139789;-72
2023/10/29 14:46:51;;;;;;;6.10;3.30;;;;;;;15.02;90.28;98377.67;430361;1275;139844;-72
2023/10/29 14:57:00;;;;;;;6.00;2.90;;;;;;;14.68;90.72;98381.95;430322;1270;139568;-71
2023/10/29 15:07:22;;;;;;;6.40;3.30;;;;;;;14.33;91.09;98376.44;430617;1270;139683;-72
2023/10/29 15:17:28;;;;;;;9.70;4.20;;;;;;;13.99;91.91;98387.17;430341;1273;139116;-71
2023/10/29 15:27:35;;;;;;;7.10;5.40;;;;;;;13.74;92.68;98375.66;430402;1274;139863;-71
2023/10/29 15:48:51;;;;;;;6.60;4.30;;;;;;;13.22;94.57;98366.97;430335;1271;139432;-70
2023/10/29 15:58:58;;;;;;;6.10;3.90;;;;;;;12.91;95.32;98378.75;430250;1271;139503;-71
2023/10/29 16:09:04;;;;;;;6.30;5.30;;;;;;;12.61;96.30;98382.39;430803;1273;140084;-70
2023/10/29 16:19:11;;;;;;;13.50;5.90;;;;;;;12.35;97.36;98384.42;431624;1270;139187;-72
2023/10/29 16:29:17;;;;;;;8.30;5.20;;;;;;;12.24;98.62;98386.48;431415;1270;139629;-70
2023/10/29 16:39:23;;;;;;;9.30;5.30;;;;;;;12.27;99.57;98387.95;431227;1273;139594;-71
2023/10/29 16:49:30;;;;;;;9.00;5.90;;;;;;;12.28;99.99;98399.41;431465;1275;139508;-70
2023/10/29 16:59:36;;;;;;;14.10;7.60;;;;;;;12.20;100.00;98403.46;431012;1271;139703;-70
2023/10/29 17:09:52;;;;;;;9.40;6.90;;;;;;;12.14;100.00;98399.92;430202;1270;139710;-72
2023/10/29 17:19:58;;;;;;;9.70;7.50;;;;;;;12.10;100.00;98400.85;430024;1274;140276;-70
2023/10/29 17:30:04;;;;;;;9.00;6.00;;;;;;;12.12;100.00;98383.66;430333;1273;139570;-71
2023/10/29 17:40:12;;;;;;;9.00;5.70;;;;;;;12.17;100.00;98355.13;430122;1271;140151;-70
2023/10/29 17:50:18;;;;;;;11.10;7.00;;;;;;;12.23;100.00;98344.98;430441;1273;139602;-71
2023/10/29 18:00:24;;;;;;;7.40;5.00;;;;;;;12.17;100.00;98339.70;430298;1269;139659;-72
2023/10/29 18:10:30;;;;;;;5.10;3.30;;;;;;;12.05;100.00;98340.58;430213;1274;140022;-71
2023/10/29 18:20:36;;;;;;;6.40;5.10;;;;;;;11.92;100.00;98358.19;430188;1270;140655;-71
2023/10/29 18:30:42;;;;;;;7.50;4.40;;;;;;;11.80;100.00;98375.21;430295;1276;141073;-71
2023/10/29 18:40:48;;;;;;;6.00;4.10;;;;;;;11.75;100.00;98408.42;430073;1270;140495;-71
2023/10/29 18:51:03;;;;;;;6.00;4.70;;;;;;;11.76;100.00;98418.64;429892;1270;180374;-70
2023/10/29 19:01:11;;;;;;;13.30;5.40;;;;;;;11.73;100.00;98409.13;430307;1270;139350;-71
2023/10/29 19:11:17;;;;;;;6.90;4.60;;;;;;;11.73;100.00;98401.83;430867;1271;139667;-70
2023/10/29 19:21:23;;;;;;;7.20;4.70;;;;;;;11.59;100.00;98399.45;430274;1270;139673;-70
2023/10/29 19:31:29;;;;;;;9.00;5.30;;;;;;;11.58;100.00;98401.34;430098;1274;164756;-70
2023/10/29 19:41:35;;;;;;;9.70;5.50;;;;;;;11.69;100.00;98409.50;430111;1273;139238;-71
2023/10/29 19:51:41;;;;;;;6.20;3.80;;;;;;;11.78;100.00;98416.75;430748;1270;139580;-70
2023/10/29 20:01:47;;;;;;;7.30;3.60;;;;;;;11.84;100.00;98415.23;430364;1270;140337;-70
2023/10/29 20:11:53;;;;;;;9.40;4.10;;;;;;;11.70;100.00;98421.83;430235;1270;139375;-70
2023/10/29 20:22:02;;;;;;;5.90;3.60;;;;;;;11.46;100.00;98427.20;429932;1270;141297;-71
2023/10/29 20:32:08;;;;;;;6.60;3.00;;;;;;;11.24;100.00;98419.81;430376;1275;139771;-71
2023/10/29 20:42:14;;;;;;;6.80;4.60;;;;;;;11.10;100.00;98425.57;430326;1271;139492;-67
2023/10/29 20:52:20;;;;;;;6.50;3.40;;;;;;;11.00;100.00;98438.98;430156;1270;140612;-67
2023/10/29 21:02:26;;;;;;;6.80;4.20;;;;;;;10.95;100.00;98416.63;430112;1275;139541;-66
2023/10/29 21:12:32;;;;;;;7.80;3.60;;;;;;;10.91;100.00;98401.39;430163;1270;140809;-66
2023/10/29 21:22:38;;;;;;;4.40;3.50;;;;;;;10.81;100.00;98404.65;430091;1270;140528;-67
2023/10/29 21:32:44;;;;;;;6.90;4.10;;;;;;;10.70;100.00;98404.94;430278;1270;139790;-67
2023/10/29 21:42:51;;;;;;;7.60;3.50;;;;;;;10.75;100.00;98413.03;430411;1270;139418;-68
2023/10/29 21:52:57;;;;;;;5.20;3.50;;;;;;;10.92;100.00;98411.13;431871;1272;139552;-67
2023/10/29 22:03:04;;;;;;;6.10;3.30;;;;;;;11.02;100.00;98420.76;430502;1271;140324;-67
2023/10/29 22:13:10;;;;;;;8.10;4.00;;;;;;;10.96;100.00;98423.02;430241;1274;140061;-67
2023/10/29 22:23:16;;;;;;;5.70;4.30;;;;;;;10.72;100.00;98434.16;430156;1272;139363;-66
2023/10/29 22:33:22;;;;;;;9.10;4.00;;;;;;;10.52;100.00;98422.96;429992;1275;139527;-66
2023/10/29 22:43:28;;;;;;;6.60;3.60;;;;;;;10.41;100.00;98408.66;429886;1276;139493;-65
2023/10/29 22:53:34;;;;;;;6.40;4.00;;;;;;;10.39;100.00;98383.23;429918;1276;139516;-67
2023/10/29 23:03:40;;;;;;;6.80;3.90;;;;;;;10.59;100.00;98349.46;430413;1273;139997;-67
2023/10/29 23:13:47;;;;;;;9.60;4.00;;;;;;;10.84;100.00;98357.54;430524;1271;140004;-68
2023/10/29 23:23:54;;;;;;;7.30;4.10;;;;;;;11.06;100.00;98378.05;430732;1271;139787;-66
2023/10/29 23:34:00;;;;;;;6.70;3.30;;;;;;;11.15;100.00;98381.33;430573;1270;140624;-65
2023/10/29 23:44:06;;;;;;;7.00;3.50;;;;;;;11.10;100.00;98383.36;430089;1276;140494;-67
2023/10/29 23:54:12;;;;;;;4.40;3.50;;;;;;;11.04;100.00;98393.80;430071;1271;139876;-66
